KANW/ANW METAR and TAF weather

Enter ICAO airport designator
Station Type Date Time Source
KANW METAR 2018/10/16 21:35 UTC NOAA

KANW 162135Z AUTO 32016G21KT 10SM SCT060 16/02 A3022 RMK AO2 T01600017


Station Type Date Time Source
KANW Decoded METAR 2018/10/16 21:35 UTC NOAA

Ainsworth Municipal, NE, United States (KANW) 42-35N 100-00W
Oct 16, 2018 - 05:35 PM EDT / 2018.10.16 2135 UTC
Wind: from the NW (320 degrees) at 18 MPH (16 KT) gusting to 24 MPH (21 KT):0
Visibility: 10 mile(s):0
Sky conditions: partly cloudy
Temperature: 60.8 F (16.0 C)
Dew Point: 35.1 F (1.7 C)
Relative Humidity: 37%
Pressure (altimeter): 30.22 in. Hg (1023 hPa)
ob: KANW 162135Z AUTO 32016G21KT 10SM SCT060 16/02 A3022 RMK AO2 T01600017
cycle: 21

Station Type Date Time Source
KANW TAF UTC NOAA

Error!


Example: see airport list